Terminal Aerodrome Forecast
Issued by NWS Louisville, KY

Home | Current Version | Previous Version | Text Only | Print | Product List | Glossary On
Versions: 1 2 3 4 5 6 7 8 9 10 11 12 13
000
FTUS43 KLMK 271100
TAFLEX
TAF
KLEX 271120Z 2712/2812 35006KT P6SM SCT030 SCT250
     FM271600 34009KT P6SM BKN035
      TEMPO 2717/2720 BKN025
     FM280100 33006KT P6SM SKC=

USA.gov is the U.S. government's official web portal to all federal, state and local government web resources and services.